Weather at Southwind Airport

Public forecast

Using degrees Fahrenheit for public forecast. Weather courtesy of forecast.io.

Closest aviation weather report (METAR) to Southwind Airport

Closest report is Tri-County Regional Airport, 8.8 nm (16.2 km) N. Retrieved 2021/07/26 21:56 UTC (9 minutes ago):

KLNR 262156Z AUTO 25007KT 10SM FEW070 32/18 A3000 RMK AO2 SLP150 T03220183

Closest aviation forecast (TAF) to Southwind Airport

Closest forecast is Dane County Regional Truax Field, 38.9 nm (72.0 km) E. Retrieved 2021/07/26 18:22 UTC (4 hours ago):

TAF KMSN 261720Z 2618/2718 26005KT P6SM FEW250 FM271100 20004KT P6SM SCT200